Terminal Aerodrome Forecast
Issued by NWS Kansas City/Pleasant Hill, MO

Home | Current Version | Previous Version | Text Only | Print | Product List | Glossary On
Versions: 1 2 3 4 5 6 7 8 9 10 11 12 13 14 15 16 17 18 19
000
FTUS43 KEAX 241124
TAFMCI
TAF
KMCI 241124Z 2412/2512 26007KT 3SM -TSRA SCT012 OVC022CB
     FM241300 17009KT P6SM -SHRA VCTS OVC030CB
     FM241600 18011KT P6SM BKN050
     FM251000 16008KT P6SM VCTS BKN035CB=

USA.gov is the U.S. government's official web portal to all federal, state and local government web resources and services.